sensor_id;sensor_type;location;lat;lon;timestamp;temperature;humidity
15394;DHT22;7795;47.986;11.868;2022-07-06T00:01:44;19.80;70.60
15394;DHT22;7795;47.986;11.868;2022-07-06T00:04:11;19.80;70.60
15394;DHT22;7795;47.986;11.868;2022-07-06T00:06:38;19.80;70.70
15394;DHT22;7795;47.986;11.868;2022-07-06T00:09:05;19.80;70.60
15394;DHT22;7795;47.986;11.868;2022-07-06T00:11:30;19.80;70.70
15394;DHT22;7795;47.986;11.868;2022-07-06T00:13:56;19.80;70.60
15394;DHT22;7795;47.986;11.868;2022-07-06T00:16:23;19.80;70.60
15394;DHT22;7795;47.986;11.868;2022-07-06T00:18:49;19.80;70.60
15394;DHT22;7795;47.986;11.868;2022-07-06T00:21:16;19.80;70.60
15394;DHT22;7795;47.986;11.868;2022-07-06T00:23:42;19.70;70.60
15394;DHT22;7795;47.986;11.868;2022-07-06T00:26:08;19.70;70.50
15394;DHT22;7795;47.986;11.868;2022-07-06T00:28:33;19.70;70.60
15394;DHT22;7795;47.986;11.868;2022-07-06T00:30:59;19.70;70.70
15394;DHT22;7795;47.986;11.868;2022-07-06T00:33:25;19.70;70.70
15394;DHT22;7795;47.986;11.868;2022-07-06T00:35:51;19.60;70.80
15394;DHT22;7795;47.986;11.868;2022-07-06T00:38:18;19.60;71.00
15394;DHT22;7795;47.986;11.868;2022-07-06T00:40:44;19.60;71.30
15394;DHT22;7795;47.986;11.868;2022-07-06T00:43:09;19.60;71.40
15394;DHT22;7795;47.986;11.868;2022-07-06T00:45:35;19.50;71.50
15394;DHT22;7795;47.986;11.868;2022-07-06T00:48:01;19.50;71.60
15394;DHT22;7795;47.986;11.868;2022-07-06T00:50:27;19.50;71.80
15394;DHT22;7795;47.986;11.868;2022-07-06T00:52:55;19.50;71.90
15394;DHT22;7795;47.986;11.868;2022-07-06T00:55:24;19.50;72.00
15394;DHT22;7795;47.986;11.868;2022-07-06T00:57:51;19.50;72.20
15394;DHT22;7795;47.986;11.868;2022-07-06T01:00:21;19.50;71.90
15394;DHT22;7795;47.986;11.868;2022-07-06T01:02:47;19.50;72.20
15394;DHT22;7795;47.986;11.868;2022-07-06T01:05:15;19.50;71.90
15394;DHT22;7795;47.986;11.868;2022-07-06T01:07:43;19.50;72.00
15394;DHT22;7795;47.986;11.868;2022-07-06T01:10:10;19.50;71.90
15394;DHT22;7795;47.986;11.868;2022-07-06T01:12:39;19.50;71.70
15394;DHT22;7795;47.986;11.868;2022-07-06T01:15:06;19.50;71.90
15394;DHT22;7795;47.986;11.868;2022-07-06T01:17:33;19.50;71.60
15394;DHT22;7795;47.986;11.868;2022-07-06T01:20:08;19.50;71.60
15394;DHT22;7795;47.986;11.868;2022-07-06T01:22:33;19.50;72.00
15394;DHT22;7795;47.986;11.868;2022-07-06T01:24:59;19.40;71.50
15394;DHT22;7795;47.986;11.868;2022-07-06T01:27:25;19.40;71.50
15394;DHT22;7795;47.986;11.868;2022-07-06T01:29:50;19.40;71.40
15394;DHT22;7795;47.986;11.868;2022-07-06T01:32:16;19.40;71.50
15394;DHT22;7795;47.986;11.868;2022-07-06T01:34:42;19.40;71.50
15394;DHT22;7795;47.986;11.868;2022-07-06T01:37:09;19.40;71.60
15394;DHT22;7795;47.986;11.868;2022-07-06T01:39:35;19.40;71.70
15394;DHT22;7795;47.986;11.868;2022-07-06T01:42:01;19.40;71.70
15394;DHT22;7795;47.986;11.868;2022-07-06T01:44:27;19.40;71.70
15394;DHT22;7795;47.986;11.868;2022-07-06T01:46:52;19.30;71.60
15394;DHT22;7795;47.986;11.868;2022-07-06T01:49:18;19.40;71.70
15394;DHT22;7795;47.986;11.868;2022-07-06T01:51:44;19.30;71.60
15394;DHT22;7795;47.986;11.868;2022-07-06T01:54:11;19.40;71.70
15394;DHT22;7795;47.986;11.868;2022-07-06T01:56:37;19.40;71.70
15394;DHT22;7795;47.986;11.868;2022-07-06T01:59:02;19.30;71.50
15394;DHT22;7795;47.986;11.868;2022-07-06T02:01:28;19.30;71.50
15394;DHT22;7795;47.986;11.868;2022-07-06T02:03:54;19.30;71.50
15394;DHT22;7795;47.986;11.868;2022-07-06T02:06:19;19.30;71.50
15394;DHT22;7795;47.986;11.868;2022-07-06T02:08:45;19.30;71.50
15394;DHT22;7795;47.986;11.868;2022-07-06T02:11:12;19.20;71.50
15394;DHT22;7795;47.986;11.868;2022-07-06T02:13:38;19.20;71.50
15394;DHT22;7795;47.986;11.868;2022-07-06T02:16:04;19.20;71.50
15394;DHT22;7795;47.986;11.868;2022-07-06T02:18:30;19.20;71.70
15394;DHT22;7795;47.986;11.868;2022-07-06T02:20:56;19.20;71.70
15394;DHT22;7795;47.986;11.868;2022-07-06T02:23:22;19.20;71.70
15394;DHT22;7795;47.986;11.868;2022-07-06T02:25:48;19.10;71.70
15394;DHT22;7795;47.986;11.868;2022-07-06T02:28:15;19.10;71.70
15394;DHT22;7795;47.986;11.868;2022-07-06T02:30:40;19.10;71.80
15394;DHT22;7795;47.986;11.868;2022-07-06T02:33:06;19.10;71.70
15394;DHT22;7795;47.986;11.868;2022-07-06T02:35:32;19.10;71.80
15394;DHT22;7795;47.986;11.868;2022-07-06T02:37:57;19.10;71.80
15394;DHT22;7795;47.986;11.868;2022-07-06T02:40:23;19.10;71.70
15394;DHT22;7795;47.986;11.868;2022-07-06T02:42:49;19.10;71.80
15394;DHT22;7795;47.986;11.868;2022-07-06T02:45:16;19.10;72.00
15394;DHT22;7795;47.986;11.868;2022-07-06T02:47:42;19.00;72.10
15394;DHT22;7795;47.986;11.868;2022-07-06T02:50:08;19.00;72.00
15394;DHT22;7795;47.986;11.868;2022-07-06T02:52:33;19.00;71.80
15394;DHT22;7795;47.986;11.868;2022-07-06T02:54:59;19.00;71.80
15394;DHT22;7795;47.986;11.868;2022-07-06T02:57:25;19.00;71.90
15394;DHT22;7795;47.986;11.868;2022-07-06T02:59:50;19.00;71.80
15394;DHT22;7795;47.986;11.868;2022-07-06T03:02:18;19.00;72.70
15394;DHT22;7795;47.986;11.868;2022-07-06T03:04:44;19.00;72.00
15394;DHT22;7795;47.986;11.868;2022-07-06T03:07:10;19.00;72.00
15394;DHT22;7795;47.986;11.868;2022-07-06T03:09:35;18.90;71.90
15394;DHT22;7795;47.986;11.868;2022-07-06T03:12:02;18.90;72.00
15394;DHT22;7795;47.986;11.868;2022-07-06T03:14:28;18.80;72.00
15394;DHT22;7795;47.986;11.868;2022-07-06T03:16:54;18.80;72.00
15394;DHT22;7795;47.986;11.868;2022-07-06T03:19:21;18.80;72.10
15394;DHT22;7795;47.986;11.868;2022-07-06T03:21:47;18.80;72.10
15394;DHT22;7795;47.986;11.868;2022-07-06T03:24:12;18.80;72.10
15394;DHT22;7795;47.986;11.868;2022-07-06T03:26:38;18.80;72.10
15394;DHT22;7795;47.986;11.868;2022-07-06T03:29:04;18.80;72.10
15394;DHT22;7795;47.986;11.868;2022-07-06T03:31:30;18.80;72.20
15394;DHT22;7795;47.986;11.868;2022-07-06T03:33:56;18.80;72.90
15394;DHT22;7795;47.986;11.868;2022-07-06T03:36:23;18.80;72.20
15394;DHT22;7795;47.986;11.868;2022-07-06T03:38:49;18.80;72.10
15394;DHT22;7795;47.986;11.868;2022-07-06T03:41:15;18.80;72.10
15394;DHT22;7795;47.986;11.868;2022-07-06T03:43:40;18.80;72.20
15394;DHT22;7795;47.986;11.868;2022-07-06T03:46:06;18.70;72.10
15394;DHT22;7795;47.986;11.868;2022-07-06T03:48:32;18.70;72.10
15394;DHT22;7795;47.986;11.868;2022-07-06T03:50:58;18.70;72.20
15394;DHT22;7795;47.986;11.868;2022-07-06T03:53:25;18.70;73.00
15394;DHT22;7795;47.986;11.868;2022-07-06T03:55:50;18.70;72.30
15394;DHT22;7795;47.986;11.868;2022-07-06T03:58:43;18.70;72.30
15394;DHT22;7795;47.986;11.868;2022-07-06T04:01:08;18.70;72.30
15394;DHT22;7795;47.986;11.868;2022-07-06T04:03:34;18.70;73.20
15394;DHT22;7795;47.986;11.868;2022-07-06T04:06:00;18.70;72.50
15394;DHT22;7795;47.986;11.868;2022-07-06T04:08:27;18.70;72.50
15394;DHT22;7795;47.986;11.868;2022-07-06T04:10:53;18.70;73.40
15394;DHT22;7795;47.986;11.868;2022-07-06T04:13:18;18.70;72.60
15394;DHT22;7795;47.986;11.868;2022-07-06T04:15:44;18.70;72.70
15394;DHT22;7795;47.986;11.868;2022-07-06T04:18:10;18.70;72.80
15394;DHT22;7795;47.986;11.868;2022-07-06T04:20:36;18.70;72.70
15394;DHT22;7795;47.986;11.868;2022-07-06T04:23:01;18.70;72.70
15394;DHT22;7795;47.986;11.868;2022-07-06T04:25:29;18.70;72.80
15394;DHT22;7795;47.986;11.868;2022-07-06T04:27:54;18.70;72.90
15394;DHT22;7795;47.986;11.868;2022-07-06T04:30:20;18.70;72.80
15394;DHT22;7795;47.986;11.868;2022-07-06T04:32:46;18.70;72.80
15394;DHT22;7795;47.986;11.868;2022-07-06T04:35:12;18.70;72.90
15394;DHT22;7795;47.986;11.868;2022-07-06T04:37:37;18.70;73.00
15394;DHT22;7795;47.986;11.868;2022-07-06T04:40:04;18.70;73.00
15394;DHT22;7795;47.986;11.868;2022-07-06T04:42:31;18.70;73.10
15394;DHT22;7795;47.986;11.868;2022-07-06T04:44:57;18.70;74.00
15394;DHT22;7795;47.986;11.868;2022-07-06T04:47:23;18.70;73.30
15394;DHT22;7795;47.986;11.868;2022-07-06T04:49:48;18.70;73.40
15394;DHT22;7795;47.986;11.868;2022-07-06T04:52:14;18.70;73.50
15394;DHT22;7795;47.986;11.868;2022-07-06T04:54:40;18.70;73.50
15394;DHT22;7795;47.986;11.868;2022-07-06T04:57:06;18.70;73.50
15394;DHT22;7795;47.986;11.868;2022-07-06T04:59:33;18.80;73.70
15394;DHT22;7795;47.986;11.868;2022-07-06T05:01:58;18.80;74.10
15394;DHT22;7795;47.986;11.868;2022-07-06T05:04:24;18.90;74.20
15394;DHT22;7795;47.986;11.868;2022-07-06T05:06:50;19.00;74.40
15394;DHT22;7795;47.986;11.868;2022-07-06T05:09:15;19.10;74.70
15394;DHT22;7795;47.986;11.868;2022-07-06T05:11:41;19.20;74.70
15394;DHT22;7795;47.986;11.868;2022-07-06T05:14:07;19.40;74.70
15394;DHT22;7795;47.986;11.868;2022-07-06T05:16:34;19.60;74.60
15394;DHT22;7795;47.986;11.868;2022-07-06T05:19:00;19.80;74.50
15394;DHT22;7795;47.986;11.868;2022-07-06T05:21:25;20.10;74.10
15394;DHT22;7795;47.986;11.868;2022-07-06T05:23:51;20.40;74.20
15394;DHT22;7795;47.986;11.868;2022-07-06T05:26:17;20.70;72.90
15394;DHT22;7795;47.986;11.868;2022-07-06T05:28:43;21.00;72.40
15394;DHT22;7795;47.986;11.868;2022-07-06T05:31:09;21.30;71.80
15394;DHT22;7795;47.986;11.868;2022-07-06T05:33:36;21.60;70.80
15394;DHT22;7795;47.986;11.868;2022-07-06T05:36:02;21.90;70.10
15394;DHT22;7795;47.986;11.868;2022-07-06T05:38:28;22.20;69.60
15394;DHT22;7795;47.986;11.868;2022-07-06T05:40:53;22.50;69.00
15394;DHT22;7795;47.986;11.868;2022-07-06T05:43:19;22.80;68.50
15394;DHT22;7795;47.986;11.868;2022-07-06T05:45:45;23.00;67.70
15394;DHT22;7795;47.986;11.868;2022-07-06T05:48:11;23.40;67.30
15394;DHT22;7795;47.986;11.868;2022-07-06T05:50:56;23.60;66.70
15394;DHT22;7795;47.986;11.868;2022-07-06T05:53:22;23.90;65.80
15394;DHT22;7795;47.986;11.868;2022-07-06T05:55:48;24.20;66.50
15394;DHT22;7795;47.986;11.868;2022-07-06T05:58:14;24.40;65.00
15394;DHT22;7795;47.986;11.868;2022-07-06T06:00:40;24.60;63.90
15394;DHT22;7795;47.986;11.868;2022-07-06T06:03:06;24.90;63.30
15394;DHT22;7795;47.986;11.868;2022-07-06T06:05:31;25.00;62.00
15394;DHT22;7795;47.986;11.868;2022-07-06T06:07:59;25.20;61.00
15394;DHT22;7795;47.986;11.868;2022-07-06T06:10:24;25.40;60.60
15394;DHT22;7795;47.986;11.868;2022-07-06T06:12:51;25.50;60.20
15394;DHT22;7795;47.986;11.868;2022-07-06T06:15:17;25.60;59.60
15394;DHT22;7795;47.986;11.868;2022-07-06T06:17:43;25.70;59.50
15394;DHT22;7795;47.986;11.868;2022-07-06T06:20:11;25.70;59.40
15394;DHT22;7795;47.986;11.868;2022-07-06T06:22:45;25.80;59.50
15394;DHT22;7795;47.986;11.868;2022-07-06T06:25:13;25.90;58.60
15394;DHT22;7795;47.986;11.868;2022-07-06T06:27:39;25.90;58.40
15394;DHT22;7795;47.986;11.868;2022-07-06T06:30:06;26.00;59.20
15394;DHT22;7795;47.986;11.868;2022-07-06T06:32:32;26.00;57.90
15394;DHT22;7795;47.986;11.868;2022-07-06T06:34:58;26.00;57.60
15394;DHT22;7795;47.986;11.868;2022-07-06T06:37:23;25.90;57.50
15394;DHT22;7795;47.986;11.868;2022-07-06T06:39:49;25.90;57.30
15394;DHT22;7795;47.986;11.868;2022-07-06T06:42:16;25.90;57.10
15394;DHT22;7795;47.986;11.868;2022-07-06T06:44:42;25.80;56.80
15394;DHT22;7795;47.986;11.868;2022-07-06T06:47:08;25.80;57.10
15394;DHT22;7795;47.986;11.868;2022-07-06T06:49:33;25.70;57.30
15394;DHT22;7795;47.986;11.868;2022-07-06T06:51:59;25.60;57.10
15394;DHT22;7795;47.986;11.868;2022-07-06T06:54:25;25.60;57.10
15394;DHT22;7795;47.986;11.868;2022-07-06T06:56:51;25.60;57.20
15394;DHT22;7795;47.986;11.868;2022-07-06T06:59:18;25.50;57.30
15394;DHT22;7795;47.986;11.868;2022-07-06T07:01:44;25.40;57.00
15394;DHT22;7795;47.986;11.868;2022-07-06T07:04:10;25.40;57.30
15394;DHT22;7795;47.986;11.868;2022-07-06T07:06:35;25.40;57.50
15394;DHT22;7795;47.986;11.868;2022-07-06T07:09:01;25.40;57.00
15394;DHT22;7795;47.986;11.868;2022-07-06T07:11:27;25.40;57.00
15394;DHT22;7795;47.986;11.868;2022-07-06T07:13:53;25.40;56.70
15394;DHT22;7795;47.986;11.868;2022-07-06T07:16:20;25.30;56.70
15394;DHT22;7795;47.986;11.868;2022-07-06T07:18:45;25.30;56.70
15394;DHT22;7795;47.986;11.868;2022-07-06T07:21:11;25.30;56.80
15394;DHT22;7795;47.986;11.868;2022-07-06T07:23:37;25.20;56.90
15394;DHT22;7795;47.986;11.868;2022-07-06T07:26:03;25.20;56.70
15394;DHT22;7795;47.986;11.868;2022-07-06T07:28:29;25.10;56.80
15394;DHT22;7795;47.986;11.868;2022-07-06T07:30:54;25.10;56.90
15394;DHT22;7795;47.986;11.868;2022-07-06T07:33:21;25.00;57.20
15394;DHT22;7795;47.986;11.868;2022-07-06T07:35:47;25.00;57.30
15394;DHT22;7795;47.986;11.868;2022-07-06T07:38:13;25.00;57.50
15394;DHT22;7795;47.986;11.868;2022-07-06T07:40:38;25.00;57.40
15394;DHT22;7795;47.986;11.868;2022-07-06T07:43:04;25.00;57.60
15394;DHT22;7795;47.986;11.868;2022-07-06T07:45:30;25.00;57.50
15394;DHT22;7795;47.986;11.868;2022-07-06T07:47:56;25.00;57.50
15394;DHT22;7795;47.986;11.868;2022-07-06T07:50:23;25.00;57.70
15394;DHT22;7795;47.986;11.868;2022-07-06T07:52:49;25.00;57.30
15394;DHT22;7795;47.986;11.868;2022-07-06T07:55:15;25.10;57.40
15394;DHT22;7795;47.986;11.868;2022-07-06T07:57:41;25.00;57.10
15394;DHT22;7795;47.986;11.868;2022-07-06T08:00:07;25.10;57.20
15394;DHT22;7795;47.986;11.868;2022-07-06T08:02:33;25.10;57.40
15394;DHT22;7795;47.986;11.868;2022-07-06T08:04:59;25.10;57.50
15394;DHT22;7795;47.986;11.868;2022-07-06T08:07:26;25.10;57.40
15394;DHT22;7795;47.986;11.868;2022-07-06T08:09:52;25.20;57.20
15394;DHT22;7795;47.986;11.868;2022-07-06T08:12:18;25.20;56.90
15394;DHT22;7795;47.986;11.868;2022-07-06T08:14:43;25.20;56.90
15394;DHT22;7795;47.986;11.868;2022-07-06T08:17:09;25.20;56.90
15394;DHT22;7795;47.986;11.868;2022-07-06T08:19:35;25.20;56.60
15394;DHT22;7795;47.986;11.868;2022-07-06T08:22:01;25.20;56.80
15394;DHT22;7795;47.986;11.868;2022-07-06T08:24:33;25.30;56.60
15394;DHT22;7795;47.986;11.868;2022-07-06T08:27:00;25.30;56.90
15394;DHT22;7795;47.986;11.868;2022-07-06T08:29:26;25.30;56.40
15394;DHT22;7795;47.986;11.868;2022-07-06T08:31:51;25.30;56.30
15394;DHT22;7795;47.986;11.868;2022-07-06T08:34:17;25.40;56.50
15394;DHT22;7795;47.986;11.868;2022-07-06T08:36:43;25.40;56.10
15394;DHT22;7795;47.986;11.868;2022-07-06T08:39:09;25.50;56.30
15394;DHT22;7795;47.986;11.868;2022-07-06T08:41:36;25.60;55.90
15394;DHT22;7795;47.986;11.868;2022-07-06T08:44:06;25.60;55.20
15394;DHT22;7795;47.986;11.868;2022-07-06T08:46:32;25.60;55.10
15394;DHT22;7795;47.986;11.868;2022-07-06T08:48:58;25.70;54.90
15394;DHT22;7795;47.986;11.868;2022-07-06T08:51:26;25.70;55.00
15394;DHT22;7795;47.986;11.868;2022-07-06T08:53:53;25.70;55.00
15394;DHT22;7795;47.986;11.868;2022-07-06T08:56:20;25.70;54.70
15394;DHT22;7795;47.986;11.868;2022-07-06T08:58:47;25.80;54.60
15394;DHT22;7795;47.986;11.868;2022-07-06T09:01:13;25.90;54.30
15394;DHT22;7795;47.986;11.868;2022-07-06T09:03:40;25.90;54.40
15394;DHT22;7795;47.986;11.868;2022-07-06T09:06:06;25.90;54.30
15394;DHT22;7795;47.986;11.868;2022-07-06T09:08:32;25.90;54.20
15394;DHT22;7795;47.986;11.868;2022-07-06T09:10:58;26.00;54.10
15394;DHT22;7795;47.986;11.868;2022-07-06T09:13:24;26.00;53.60
15394;DHT22;7795;47.986;11.868;2022-07-06T09:15:51;26.00;53.50
15394;DHT22;7795;47.986;11.868;2022-07-06T09:18:17;26.10;53.40
15394;DHT22;7795;47.986;11.868;2022-07-06T09:20:43;26.20;53.40
15394;DHT22;7795;47.986;11.868;2022-07-06T09:23:08;26.20;53.10
15394;DHT22;7795;47.986;11.868;2022-07-06T09:25:35;26.20;52.70
15394;DHT22;7795;47.986;11.868;2022-07-06T09:28:01;26.30;52.60
15394;DHT22;7795;47.986;11.868;2022-07-06T09:30:29;26.30;52.40
15394;DHT22;7795;47.986;11.868;2022-07-06T09:32:57;26.40;52.10
15394;DHT22;7795;47.986;11.868;2022-07-06T09:35:24;26.40;51.70
15394;DHT22;7795;47.986;11.868;2022-07-06T09:38:02;26.50;51.70
15394;DHT22;7795;47.986;11.868;2022-07-06T09:40:29;26.60;51.00
15394;DHT22;7795;47.986;11.868;2022-07-06T09:43:07;26.60;52.50
15394;DHT22;7795;47.986;11.868;2022-07-06T09:45:34;26.60;51.10
15394;DHT22;7795;47.986;11.868;2022-07-06T09:48:06;26.70;51.30
15394;DHT22;7795;47.986;11.868;2022-07-06T09:50:38;26.80;50.50
15394;DHT22;7795;47.986;11.868;2022-07-06T09:53:05;26.80;50.80
15394;DHT22;7795;47.986;11.868;2022-07-06T09:55:30;26.80;50.70
15394;DHT22;7795;47.986;11.868;2022-07-06T09:57:56;26.80;50.20
15394;DHT22;7795;47.986;11.868;2022-07-06T10:00:22;26.90;50.30
15394;DHT22;7795;47.986;11.868;2022-07-06T10:02:49;26.80;50.20
15394;DHT22;7795;47.986;11.868;2022-07-06T10:05:17;26.80;50.30
15394;DHT22;7795;47.986;11.868;2022-07-06T10:07:44;26.90;50.00
15394;DHT22;7795;47.986;11.868;2022-07-06T10:10:11;26.90;50.20
15394;DHT22;7795;47.986;11.868;2022-07-06T10:12:37;26.90;49.60
15394;DHT22;7795;47.986;11.868;2022-07-06T10:15:06;26.90;49.90
15394;DHT22;7795;47.986;11.868;2022-07-06T10:17:33;26.90;49.70
15394;DHT22;7795;47.986;11.868;2022-07-06T10:19:59;26.90;49.30
15394;DHT22;7795;47.986;11.868;2022-07-06T10:22:27;27.00;49.20
15394;DHT22;7795;47.986;11.868;2022-07-06T10:24:52;27.00;49.20
15394;DHT22;7795;47.986;11.868;2022-07-06T10:27:19;27.00;48.90
15394;DHT22;7795;47.986;11.868;2022-07-06T10:29:44;27.00;48.80
15394;DHT22;7795;47.986;11.868;2022-07-06T10:32:10;27.00;48.40
15394;DHT22;7795;47.986;11.868;2022-07-06T10:34:36;27.00;48.30
15394;DHT22;7795;47.986;11.868;2022-07-06T10:37:03;27.00;48.60
15394;DHT22;7795;47.986;11.868;2022-07-06T10:39:34;27.10;48.60
15394;DHT22;7795;47.986;11.868;2022-07-06T10:42:41;27.10;48.10
15394;DHT22;7795;47.986;11.868;2022-07-06T10:45:08;27.10;48.20
15394;DHT22;7795;47.986;11.868;2022-07-06T10:47:35;27.00;48.40
15394;DHT22;7795;47.986;11.868;2022-07-06T10:50:02;27.00;48.40
15394;DHT22;7795;47.986;11.868;2022-07-06T10:52:53;27.00;47.80
15394;DHT22;7795;47.986;11.868;2022-07-06T10:55:31;27.10;47.20
15394;DHT22;7795;47.986;11.868;2022-07-06T10:57:58;27.10;46.60
15394;DHT22;7795;47.986;11.868;2022-07-06T11:00:25;27.10;47.80
15394;DHT22;7795;47.986;11.868;2022-07-06T11:02:51;27.10;47.30
15394;DHT22;7795;47.986;11.868;2022-07-06T11:05:41;27.10;47.90
15394;DHT22;7795;47.986;11.868;2022-07-06T11:08:09;27.20;46.30
15394;DHT22;7795;47.986;11.868;2022-07-06T11:10:48;27.20;47.10
15394;DHT22;7795;47.986;11.868;2022-07-06T11:13:25;27.30;46.80
15394;DHT22;7795;47.986;11.868;2022-07-06T11:15:51;27.40;46.90
15394;DHT22;7795;47.986;11.868;2022-07-06T11:18:19;27.40;47.70
15394;DHT22;7795;47.986;11.868;2022-07-06T11:21:15;27.50;46.70
15394;DHT22;7795;47.986;11.868;2022-07-06T11:23:41;27.50;46.30
15394;DHT22;7795;47.986;11.868;2022-07-06T11:26:08;27.60;46.60
15394;DHT22;7795;47.986;11.868;2022-07-06T11:28:37;27.60;46.30
15394;DHT22;7795;47.986;11.868;2022-07-06T11:31:03;27.70;46.40
15394;DHT22;7795;47.986;11.868;2022-07-06T11:33:29;27.70;46.10
15394;DHT22;7795;47.986;11.868;2022-07-06T11:36:11;27.70;46.30
15394;DHT22;7795;47.986;11.868;2022-07-06T11:38:37;27.80;45.60
15394;DHT22;7795;47.986;11.868;2022-07-06T11:41:03;27.80;45.80
15394;DHT22;7795;47.986;11.868;2022-07-06T11:43:30;27.80;45.50
15394;DHT22;7795;47.986;11.868;2022-07-06T11:45:56;27.80;45.40
15394;DHT22;7795;47.986;11.868;2022-07-06T11:48:22;27.80;45.30
15394;DHT22;7795;47.986;11.868;2022-07-06T11:50:58;27.80;45.40
15394;DHT22;7795;47.986;11.868;2022-07-06T11:53:23;27.90;45.10
15394;DHT22;7795;47.986;11.868;2022-07-06T11:55:49;27.80;45.30
15394;DHT22;7795;47.986;11.868;2022-07-06T11:58:17;27.90;45.20
15394;DHT22;7795;47.986;11.868;2022-07-06T12:01:03;27.90;44.60
15394;DHT22;7795;47.986;11.868;2022-07-06T12:03:28;27.90;44.20
15394;DHT22;7795;47.986;11.868;2022-07-06T12:05:54;27.90;44.80
15394;DHT22;7795;47.986;11.868;2022-07-06T12:08:20;28.00;44.60
15394;DHT22;7795;47.986;11.868;2022-07-06T12:10:46;28.00;44.60
15394;DHT22;7795;47.986;11.868;2022-07-06T12:13:12;28.00;44.60
15394;DHT22;7795;47.986;11.868;2022-07-06T12:15:37;28.00;44.50
15394;DHT22;7795;47.986;11.868;2022-07-06T12:18:05;28.00;43.90
15394;DHT22;7795;47.986;11.868;2022-07-06T12:20:31;28.10;43.90
15394;DHT22;7795;47.986;11.868;2022-07-06T12:23:01;28.10;43.80
15394;DHT22;7795;47.986;11.868;2022-07-06T12:25:30;28.10;43.10
15394;DHT22;7795;47.986;11.868;2022-07-06T12:27:57;28.10;42.90
15394;DHT22;7795;47.986;11.868;2022-07-06T12:30:23;28.10;43.20
15394;DHT22;7795;47.986;11.868;2022-07-06T12:33:11;28.10;43.10
15394;DHT22;7795;47.986;11.868;2022-07-06T12:35:38;28.20;42.60
15394;DHT22;7795;47.986;11.868;2022-07-06T12:38:03;28.20;43.10
15394;DHT22;7795;47.986;11.868;2022-07-06T12:40:29;28.20;43.00
15394;DHT22;7795;47.986;11.868;2022-07-06T12:42:55;28.20;43.00
15394;DHT22;7795;47.986;11.868;2022-07-06T12:45:26;28.20;42.60
15394;DHT22;7795;47.986;11.868;2022-07-06T12:47:59;28.20;42.60
15394;DHT22;7795;47.986;11.868;2022-07-06T12:50:32;28.20;42.70
15394;DHT22;7795;47.986;11.868;2022-07-06T12:52:58;28.10;42.80
15394;DHT22;7795;47.986;11.868;2022-07-06T12:55:26;28.20;43.00
15394;DHT22;7795;47.986;11.868;2022-07-06T12:57:52;28.20;42.50
15394;DHT22;7795;47.986;11.868;2022-07-06T13:00:18;28.20;42.50
15394;DHT22;7795;47.986;11.868;2022-07-06T13:02:47;28.20;42.70
15394;DHT22;7795;47.986;11.868;2022-07-06T13:05:15;28.20;42.20
15394;DHT22;7795;47.986;11.868;2022-07-06T13:07:46;28.30;42.30
15394;DHT22;7795;47.986;11.868;2022-07-06T13:10:13;28.30;42.20
15394;DHT22;7795;47.986;11.868;2022-07-06T13:12:39;28.30;42.40
15394;DHT22;7795;47.986;11.868;2022-07-06T13:15:08;28.30;42.10
15394;DHT22;7795;47.986;11.868;2022-07-06T13:17:34;28.40;41.90
15394;DHT22;7795;47.986;11.868;2022-07-06T13:20:00;28.40;41.60
15394;DHT22;7795;47.986;11.868;2022-07-06T13:22:26;28.40;41.70
15394;DHT22;7795;47.986;11.868;2022-07-06T13:24:53;28.40;41.70
15394;DHT22;7795;47.986;11.868;2022-07-06T13:27:19;28.40;41.20
15394;DHT22;7795;47.986;11.868;2022-07-06T13:29:45;28.50;41.40
15394;DHT22;7795;47.986;11.868;2022-07-06T13:32:11;28.50;41.60
15394;DHT22;7795;47.986;11.868;2022-07-06T13:34:37;28.50;41.00
15394;DHT22;7795;47.986;11.868;2022-07-06T13:37:03;28.50;40.90
15394;DHT22;7795;47.986;11.868;2022-07-06T13:39:29;28.50;40.60
15394;DHT22;7795;47.986;11.868;2022-07-06T13:41:57;28.50;40.00
15394;DHT22;7795;47.986;11.868;2022-07-06T13:44:23;28.50;40.00
15394;DHT22;7795;47.986;11.868;2022-07-06T13:46:49;28.50;40.30
15394;DHT22;7795;47.986;11.868;2022-07-06T13:49:15;28.50;40.20
15394;DHT22;7795;47.986;11.868;2022-07-06T13:51:41;28.50;39.90
15394;DHT22;7795;47.986;11.868;2022-07-06T13:54:07;28.50;39.50
15394;DHT22;7795;47.986;11.868;2022-07-06T13:56:33;28.50;39.70
15394;DHT22;7795;47.986;11.868;2022-07-06T13:59:01;28.40;40.00
15394;DHT22;7795;47.986;11.868;2022-07-06T14:01:26;28.40;40.10
15394;DHT22;7795;47.986;11.868;2022-07-06T14:03:52;28.50;40.50
15394;DHT22;7795;47.986;11.868;2022-07-06T14:06:19;28.50;40.60
15394;DHT22;7795;47.986;11.868;2022-07-06T14:08:45;28.50;40.80
15394;DHT22;7795;47.986;11.868;2022-07-06T14:11:11;28.50;40.80
15394;DHT22;7795;47.986;11.868;2022-07-06T14:13:38;28.50;40.80
15394;DHT22;7795;47.986;11.868;2022-07-06T14:16:05;28.50;40.70
15394;DHT22;7795;47.986;11.868;2022-07-06T14:18:32;28.60;40.50
15394;DHT22;7795;47.986;11.868;2022-07-06T14:20:58;28.60;40.50
15394;DHT22;7795;47.986;11.868;2022-07-06T14:23:25;28.60;40.50
15394;DHT22;7795;47.986;11.868;2022-07-06T14:25:51;28.60;40.50
15394;DHT22;7795;47.986;11.868;2022-07-06T14:28:18;28.60;40.50
15394;DHT22;7795;47.986;11.868;2022-07-06T14:30:45;28.60;41.20
15394;DHT22;7795;47.986;11.868;2022-07-06T14:33:13;28.60;40.80
15394;DHT22;7795;47.986;11.868;2022-07-06T14:35:42;28.60;41.40
15394;DHT22;7795;47.986;11.868;2022-07-06T14:38:08;28.60;40.60
15394;DHT22;7795;47.986;11.868;2022-07-06T14:40:35;28.70;40.60
15394;DHT22;7795;47.986;11.868;2022-07-06T14:43:01;28.70;39.80
15394;DHT22;7795;47.986;11.868;2022-07-06T14:45:27;28.70;39.90
15394;DHT22;7795;47.986;11.868;2022-07-06T14:47:53;28.70;40.00
15394;DHT22;7795;47.986;11.868;2022-07-06T14:50:20;28.70;39.90
15394;DHT22;7795;47.986;11.868;2022-07-06T14:52:48;28.70;39.70
15394;DHT22;7795;47.986;11.868;2022-07-06T14:55:15;28.70;39.70
15394;DHT22;7795;47.986;11.868;2022-07-06T14:57:41;28.70;39.60
15394;DHT22;7795;47.986;11.868;2022-07-06T15:00:08;28.70;39.80
15394;DHT22;7795;47.986;11.868;2022-07-06T15:02:34;28.70;39.70
15394;DHT22;7795;47.986;11.868;2022-07-06T15:04:59;28.70;39.60
15394;DHT22;7795;47.986;11.868;2022-07-06T15:07:26;28.80;39.70
15394;DHT22;7795;47.986;11.868;2022-07-06T15:09:52;28.80;39.40
15394;DHT22;7795;47.986;11.868;2022-07-06T15:12:18;28.80;39.60
15394;DHT22;7795;47.986;11.868;2022-07-06T15:14:44;28.80;39.60
15394;DHT22;7795;47.986;11.868;2022-07-06T15:17:10;28.80;39.40
15394;DHT22;7795;47.986;11.868;2022-07-06T15:19:35;28.80;39.20
15394;DHT22;7795;47.986;11.868;2022-07-06T15:22:01;28.80;39.40
15394;DHT22;7795;47.986;11.868;2022-07-06T15:24:28;28.80;39.50
15394;DHT22;7795;47.986;11.868;2022-07-06T15:26:54;28.80;39.70
15394;DHT22;7795;47.986;11.868;2022-07-06T15:29:20;28.80;39.80